Arthur Maersk — OXJH2 — position and weather

sailwx.info

Track history (hours):
 
Tides and Currents Weather Stations Pressure Air Temp Water Temp Dewpoint Dewpoint Depression Visibility Wind Speed Wind Dir Waves Ship Positions

Arthur Maersk

Last reported at 2014-Oct-27 12:28 UTC. Time now 2014-Oct-31 17:14 UTC.
Position N 01°11' E 103°48'.

Length 352 m; draft 12.8 m.

Type: Cargo ship. MMSI: 220221000.

Date/timePositionNaut miles runAvg speedWind from/ knotsBaromVisibWave heightAir tempDewpointWater temp
2014-Oct-27 12:28N 01°11' E 103°48'1414.8
2014-Oct-27 11:33N 01°15' E 104°01'  
2014-Oct-24 09:28N 22°34' E 114°16'0 0.1
2014-Oct-24 06:20N 22°34' E 114°16'0 0.0
2014-Oct-24 05:26N 22°34' E 114°16'0 0.0
2014-Oct-24 04:08N 22°34' E 114°16'0 0.0
2014-Oct-24 01:32N 22°34' E 114°16'0 0.0
2014-Oct-24 00:32N 22°34' E 114°16'0 0.0
2014-Oct-23 23:26N 22°34' E 114°16'0 0.0
2014-Oct-23 21:08N 22°34' E 114°16'0 0.0
2014-Oct-23 20:32N 22°34' E 114°16'0 0.0
2014-Oct-23 19:20N 22°34' E 114°16'19 3.1
2014-Oct-23 13:19N 22°18' E 114°06'169 5.8
2014-Oct-22 08:23N 22°56' E 117°04'7619.3
2014-Oct-22 04:27N 23°43' E 118°09'2022.1
2014-Oct-22 03:33N 23°55' E 118°26'40620.3
2014-Oct-21 07:33N 29°38' E 122°29'1616.0
2014-Oct-21 06:33N 29°48' E 122°15'1313.0
2014-Oct-21 05:33N 29°55' E 122°02'1110.7
2014-Oct-21 04:33N 29°57' E 121°50'0 0.0
2014-Oct-21 02:18N 29°57' E 121°50'0 0.0
2014-Oct-21 01:21N 29°57' E 121°50'0 0.0
2014-Oct-20 23:15N 29°57' E 121°50'0 0.1
2014-Oct-20 22:33N 29°57' E 121°50'0 0.0
2014-Oct-20 21:27N 29°57' E 121°50'0 0.0
2014-Oct-20 20:09N 29°57' E 121°50'0 0.0
2014-Oct-20 19:33N 29°57' E 121°50'0 0.0
2014-Oct-20 18:21N 29°57' E 121°50'0 0.0
2014-Oct-20 16:09N 29°57' E 121°50'0 0.3
2014-Oct-20 15:33N 29°57' E 121°50'5 4.6
2014-Oct-20 14:33N 29°59' E 121°55'1312.7
2014-Oct-20 13:33N 29°55' E 122°09'1211.9
2014-Oct-20 12:33N 29°46' E 122°18'8 7.6
2014-Oct-20 11:33N 29°43' E 122°26'9 8.5
2014-Oct-20 10:33N 29°42' E 122°36'9 9.3
2014-Oct-20 09:32N 29°46' E 122°45'9 8.8
2014-Oct-20 08:33N 29°51' E 122°53'7 7.3
2014-Oct-20 07:33N 29°56' E 123°00'6 5.9
2014-Oct-20 06:33N 29°59' E 123°06'7 6.0
2014-Oct-20 05:27N 30°05' E 123°09'6 6.2
2014-Oct-20 04:33N 30°10' E 123°08'2010.0
2014-Oct-20 02:33N 30°24' E 122°52'2121.0
2014-Oct-20 01:33N 30°32' E 122°29'1413.9
2014-Oct-20 00:33N 30°33' E 122°13'8 6.2
2014-Oct-19 23:14N 30°37' E 122°05'0 0.1
2014-Oct-19 22:29N 30°37' E 122°05'0 0.0
2014-Oct-19 15:19N 30°37' E 122°05'0 0.0
2014-Oct-18 22:33N 30°37' E 122°04'1010.2
2014-Oct-18 21:34N 30°34' E 122°16'9 8.5
2014-Oct-18 20:33N 30°34' E 122°26'1919.5
2014-Oct-18 19:34N 30°35' E 122°48'13317.7
2014-Oct-18 12:04N 30°44' E 125°22'  
Track history (hours):
 
Tides and Currents Weather Stations Pressure Air Temp Water Temp Dewpoint Dewpoint Depression Visibility Wind Speed Wind Dir Waves Ship Positions

Arthur Maersk

Last reported at 2014-Oct-27 12:28 UTC. Time now 2014-Oct-31 17:14 UTC.
Position N 01°11' E 103°48'.

Length 352 m; draft 12.8 m.

Type: Cargo ship. MMSI: 220221000.

Date/timePositionNaut miles runAvg speedWind from/ knotsBaromVisibWave heightAir tempDewpointWater temp
2014-Oct-27 12:28N 01°11' E 103°48'1414.8
2014-Oct-27 11:33N 01°15' E 104°01'  
2014-Oct-24 09:28N 22°34' E 114°16'0 0.1
2014-Oct-24 06:20N 22°34' E 114°16'0 0.0
2014-Oct-24 05:26N 22°34' E 114°16'0 0.0
2014-Oct-24 04:08N 22°34' E 114°16'0 0.0
2014-Oct-24 01:32N 22°34' E 114°16'0 0.0
2014-Oct-24 00:32N 22°34' E 114°16'0 0.0
2014-Oct-23 23:26N 22°34' E 114°16'0 0.0
2014-Oct-23 21:08N 22°34' E 114°16'0 0.0
2014-Oct-23 20:32N 22°34' E 114°16'0 0.0
2014-Oct-23 19:20N 22°34' E 114°16'19 3.1
2014-Oct-23 13:19N 22°18' E 114°06'169 5.8
2014-Oct-22 08:23N 22°56' E 117°04'7619.3
2014-Oct-22 04:27N 23°43' E 118°09'2022.1
2014-Oct-22 03:33N 23°55' E 118°26'40620.3
2014-Oct-21 07:33N 29°38' E 122°29'1616.0
2014-Oct-21 06:33N 29°48' E 122°15'1313.0
2014-Oct-21 05:33N 29°55' E 122°02'1110.7
2014-Oct-21 04:33N 29°57' E 121°50'0 0.0
2014-Oct-21 02:18N 29°57' E 121°50'0 0.0
2014-Oct-21 01:21N 29°57' E 121°50'0 0.0
2014-Oct-20 23:15N 29°57' E 121°50'0 0.1
2014-Oct-20 22:33N 29°57' E 121°50'0 0.0
2014-Oct-20 21:27N 29°57' E 121°50'0 0.0
2014-Oct-20 20:09N 29°57' E 121°50'0 0.0
2014-Oct-20 19:33N 29°57' E 121°50'0 0.0
2014-Oct-20 18:21N 29°57' E 121°50'0 0.0
2014-Oct-20 16:09N 29°57' E 121°50'0 0.3
2014-Oct-20 15:33N 29°57' E 121°50'5 4.6
2014-Oct-20 14:33N 29°59' E 121°55'1312.7
2014-Oct-20 13:33N 29°55' E 122°09'1211.9
2014-Oct-20 12:33N 29°46' E 122°18'8 7.6
2014-Oct-20 11:33N 29°43' E 122°26'9 8.5
2014-Oct-20 10:33N 29°42' E 122°36'9 9.3
2014-Oct-20 09:32N 29°46' E 122°45'9 8.8
2014-Oct-20 08:33N 29°51' E 122°53'7 7.3
2014-Oct-20 07:33N 29°56' E 123°00'6 5.9
2014-Oct-20 06:33N 29°59' E 123°06'7 6.0
2014-Oct-20 05:27N 30°05' E 123°09'6 6.2
2014-Oct-20 04:33N 30°10' E 123°08'2010.0
2014-Oct-20 02:33N 30°24' E 122°52'2121.0
2014-Oct-20 01:33N 30°32' E 122°29'1413.9
2014-Oct-20 00:33N 30°33' E 122°13'8 6.2
2014-Oct-19 23:14N 30°37' E 122°05'0 0.1
2014-Oct-19 22:29N 30°37' E 122°05'0 0.0
2014-Oct-19 15:19N 30°37' E 122°05'0 0.0
2014-Oct-18 22:33N 30°37' E 122°04'1010.2
2014-Oct-18 21:34N 30°34' E 122°16'9 8.5
2014-Oct-18 20:33N 30°34' E 122°26'1919.5
2014-Oct-18 19:34N 30°35' E 122°48'13317.7
2014-Oct-18 12:04N 30°44' E 125°22'  

Dump ship's entire track history